createdAt,value
2022-12-06T00:02:14.861Z,0.30
2022-12-06T00:05:21.508Z,-0.09
2022-12-06T00:08:27.138Z,1.24
2022-12-06T00:11:34.985Z,1.46
2022-12-06T00:14:39.970Z,1.30
2022-12-06T00:17:45.910Z,1.19
2022-12-06T00:20:50.998Z,0.10
2022-12-06T00:23:59.380Z,-0.31
2022-12-06T00:27:04.758Z,0.34
2022-12-06T00:30:10.627Z,1.35
2022-12-06T00:33:16.685Z,1.69
2022-12-06T00:36:25.858Z,1.66
2022-12-06T00:39:33.426Z,1.98
2022-12-06T00:42:39.186Z,1.53
2022-12-06T00:45:43.880Z,1.36
2022-12-06T00:48:49.316Z,1.68
2022-12-06T00:51:55.500Z,1.38
2022-12-06T00:55:01.515Z,1.56
2022-12-06T00:58:00.544Z,2.39
2022-12-06T01:00:59.739Z,1.78
2022-12-06T01:04:07.199Z,1.06
2022-12-06T01:07:12.475Z,1.59
2022-12-06T01:10:18.346Z,1.06
2022-12-06T01:13:24.190Z,1.52
2022-12-06T01:16:34.455Z,1.81
2022-12-06T01:19:41.057Z,1.71
2022-12-06T01:22:46.250Z,1.54
2022-12-06T01:25:51.891Z,1.24
2022-12-06T01:28:57.457Z,1.32
2022-12-06T01:32:02.389Z,1.71
2022-12-06T01:35:08.322Z,1.52
2022-12-06T01:38:15.012Z,1.06
2022-12-06T01:41:20.970Z,1.53
2022-12-06T01:44:59.690Z,1.75
2022-12-06T01:48:05.384Z,0.96
2022-12-06T01:51:11.172Z,1.63
2022-12-06T01:54:18.274Z,1.81
2022-12-06T01:57:25.120Z,1.91
2022-12-06T02:00:30.819Z,0.73
2022-12-06T02:03:38.450Z,1.42
2022-12-06T02:06:44.930Z,1.50
2022-12-06T02:09:50.519Z,1.67
2022-12-06T02:12:56.083Z,1.25
2022-12-06T02:16:24.402Z,1.35
2022-12-06T02:19:53.336Z,1.94
2022-12-06T02:23:40.999Z,1.59
2022-12-06T02:27:03.380Z,1.33
2022-12-06T02:30:28.627Z,1.17
2022-12-06T02:33:41.705Z,0.98
2022-12-06T02:37:06.513Z,1.25
2022-12-06T02:40:21.520Z,1.20
2022-12-06T02:43:31.540Z,1.26
2022-12-06T02:46:37.151Z,1.57
2022-12-06T02:49:42.589Z,1.73
2022-12-06T02:52:48.429Z,2.05
2022-12-06T02:55:54.515Z,1.59
2022-12-06T02:59:00.403Z,1.71
2022-12-06T03:02:10.729Z,1.70
2022-12-06T03:05:24.349Z,1.77
2022-12-06T03:08:33.978Z,1.52
2022-12-06T03:11:44.046Z,1.22
2022-12-06T03:14:53.868Z,1.24
2022-12-06T03:18:09.225Z,1.07
2022-12-06T03:21:25.704Z,0.85
2022-12-06T03:24:31.229Z,1.02
2022-12-06T03:27:37.361Z,0.69
2022-12-06T03:30:42.387Z,0.39
2022-12-06T03:33:48.843Z,1.10
2022-12-06T03:36:48.235Z,1.13
2022-12-06T03:39:57.231Z,1.48
2022-12-06T03:43:03.261Z,1.45
2022-12-06T03:46:16.119Z,0.34
2022-12-06T03:49:26.655Z,1.05
2022-12-06T03:52:33.046Z,-0.63
2022-12-06T03:55:39.063Z,-0.71
2022-12-06T03:58:44.572Z,-0.64
2022-12-06T04:01:49.300Z,-1.73
2022-12-06T04:04:56.360Z,-0.38
2022-12-06T04:08:01.823Z,-0.60
2022-12-06T04:11:07.565Z,-0.50
2022-12-06T04:14:13.033Z,-0.30
2022-12-06T04:17:36.944Z,-0.46
2022-12-06T04:21:00.772Z,-0.49
2022-12-06T04:24:07.443Z,-0.60
2022-12-06T04:27:30.728Z,-0.54
2022-12-06T04:30:54.069Z,-0.65
2022-12-06T04:34:17.780Z,-0.48
2022-12-06T04:37:40.472Z,-0.44
2022-12-06T04:40:40.035Z,-0.44
2022-12-06T04:43:51.951Z,-0.22
2022-12-06T04:46:58.827Z,0.01
2022-12-06T04:50:04.949Z,-0.01
2022-12-06T04:53:09.928Z,0.02
2022-12-06T04:56:15.084Z,0.17
2022-12-06T04:59:21.335Z,-0.04
2022-12-06T05:02:28.451Z,-0.11
2022-12-06T05:05:33.374Z,0.19
2022-12-06T05:08:38.899Z,0.30
2022-12-06T05:11:47.714Z,0.06
2022-12-06T05:14:54.017Z,0.04
2022-12-06T05:17:53.231Z,-0.29
2022-12-06T05:20:46.408Z,-0.17
2022-12-06T05:23:52.110Z,-0.22
2022-12-06T05:26:58.512Z,-0.26
2022-12-06T05:29:57.949Z,-0.05
2022-12-06T05:33:03.144Z,0.07
2022-12-06T05:36:08.384Z,-0.03
2022-12-06T05:39:15.001Z,0.69
2022-12-06T05:42:22.423Z,0.05
2022-12-06T05:45:27.477Z,0.12
2022-12-06T05:48:32.767Z,0.07
2022-12-06T05:51:38.871Z,0.48
2022-12-06T05:54:43.894Z,0.48
2022-12-06T05:57:50.306Z,0.28
2022-12-06T06:00:56.025Z,0.79
2022-12-06T06:04:01.833Z,1.05
2022-12-06T06:07:07.950Z,1.36
2022-12-06T06:10:13.333Z,1.70
2022-12-06T06:13:19.124Z,3.04
2022-12-06T06:16:25.195Z,0.34
2022-12-06T06:19:30.806Z,0.47
2022-12-06T06:22:36.802Z,0.16
2022-12-06T06:25:42.977Z,0.34
2022-12-06T06:28:47.822Z,0.28
2022-12-06T06:31:53.636Z,0.44
2022-12-06T06:34:59.270Z,0.63
2022-12-06T06:38:04.677Z,1.18
2022-12-06T06:41:11.051Z,1.86
2022-12-06T06:44:16.863Z,3.44
2022-12-06T06:47:23.381Z,1.84
2022-12-06T06:50:29.019Z,2.56
2022-12-06T06:53:34.752Z,2.78
2022-12-06T06:56:40.223Z,2.70
2022-12-06T06:59:45.860Z,2.28
2022-12-06T07:02:50.978Z,2.19
2022-12-06T07:05:57.091Z,2.84
2022-12-06T07:09:04.427Z,2.94
2022-12-06T07:12:10.148Z,2.62
2022-12-06T07:15:09.601Z,2.54
2022-12-06T07:18:16.269Z,2.73
2022-12-06T07:21:22.551Z,2.59
2022-12-06T07:24:27.426Z,2.51
2022-12-06T07:27:32.488Z,2.24
2022-12-06T07:30:39.271Z,2.60
2022-12-06T07:33:45.863Z,2.69
2022-12-06T07:36:51.481Z,2.72
2022-12-06T07:39:57.996Z,2.90
2022-12-06T08:24:11.038Z,1.27
2022-12-06T08:27:17.112Z,1.52
2022-12-06T08:30:16.790Z,1.75
2022-12-06T08:33:03.179Z,1.78
2022-12-06T08:35:58.055Z,2.06
2022-12-06T08:38:52.422Z,2.33
2022-12-06T08:42:07.776Z,2.30
2022-12-06T08:45:13.459Z,2.29
2022-12-06T08:48:18.991Z,2.67
2022-12-06T08:51:25.318Z,2.95
2022-12-06T08:54:32.682Z,3.11
2022-12-06T08:57:38.296Z,2.90
2022-12-06T09:00:44.157Z,2.53
2022-12-06T09:03:53.683Z,2.77
2022-12-06T09:06:59.047Z,3.26
2022-12-06T09:10:07.417Z,3.50
2022-12-06T09:13:13.974Z,3.78
2022-12-06T09:16:29.527Z,3.88
2022-12-06T09:19:35.646Z,3.99
2022-12-06T09:22:41.458Z,3.92
2022-12-06T09:25:47.023Z,4.02
2022-12-06T09:28:56.469Z,3.85
2022-12-06T09:32:01.457Z,3.87
2022-12-06T09:35:12.306Z,4.31
2022-12-06T09:38:07.422Z,4.33
2022-12-06T09:41:40.359Z,4.71
2022-12-06T09:45:26.369Z,4.46
2022-12-06T09:49:15.784Z,4.60
2022-12-06T09:52:30.476Z,4.46
2022-12-06T09:56:02.432Z,4.52
2022-12-06T09:59:30.170Z,4.58
2022-12-06T10:03:23.970Z,4.97
2022-12-06T10:06:36.773Z,4.91
2022-12-06T10:10:06.546Z,4.96
2022-12-06T10:13:50.807Z,5.12
2022-12-06T10:17:28.641Z,5.24
2022-12-06T10:20:51.184Z,5.25
2022-12-06T10:24:23.568Z,5.44
2022-12-06T10:27:57.065Z,5.17
2022-12-06T10:31:11.174Z,5.21
2022-12-06T10:34:30.041Z,5.48
2022-12-06T10:37:52.461Z,5.13
2022-12-06T10:41:11.673Z,5.13
2022-12-06T10:44:26.700Z,5.26
2022-12-06T10:47:51.803Z,5.28
2022-12-06T10:50:57.555Z,5.22
2022-12-06T10:54:07.946Z,5.52
2022-12-06T10:57:16.882Z,5.54
2022-12-06T11:00:38.502Z,5.57
2022-12-06T11:04:02.656Z,5.56
2022-12-06T11:07:11.036Z,5.52
2022-12-06T11:10:15.331Z,5.88
2022-12-06T11:13:57.345Z,5.82
2022-12-06T11:17:33.532Z,5.53
2022-12-06T11:20:44.311Z,5.70
2022-12-06T11:24:16.507Z,6.32
2022-12-06T11:27:29.655Z,6.23
2022-12-06T11:30:34.885Z,6.23
2022-12-06T11:33:41.957Z,6.11
2022-12-06T11:36:48.043Z,5.76
2022-12-06T11:39:54.176Z,6.13
2022-12-06T11:43:00.332Z,5.98
2022-12-06T11:46:06.728Z,5.84
2022-12-06T11:49:19.006Z,6.32
2022-12-06T11:52:39.921Z,6.17
2022-12-06T11:55:57.101Z,6.22
2022-12-06T11:59:29.378Z,6.26
2022-12-06T12:02:46.097Z,6.38
2022-12-06T12:05:53.112Z,6.25
2022-12-06T12:09:12.822Z,6.44
2022-12-06T12:12:25.038Z,6.33
2022-12-06T12:15:34.143Z,6.28
2022-12-06T12:18:44.020Z,6.04
2022-12-06T12:21:56.214Z,5.97
2022-12-06T12:25:18.792Z,6.07
2022-12-06T12:28:17.561Z,6.17
2022-12-06T12:31:37.703Z,6.19
2022-12-06T12:34:44.557Z,6.09
2022-12-06T12:37:49.500Z,5.74
2022-12-06T12:41:07.891Z,5.81
2022-12-06T12:44:37.173Z,6.37
2022-12-06T12:47:33.258Z,6.11
2022-12-06T12:50:38.691Z,6.26
2022-12-06T12:53:53.313Z,5.99
2022-12-06T12:57:00.075Z,6.16
2022-12-06T13:00:06.534Z,5.96
2022-12-06T13:03:49.362Z,6.08
2022-12-06T13:06:46.116Z,6.34
2022-12-06T13:10:20.118Z,6.68
2022-12-06T13:13:34.456Z,6.31
2022-12-06T13:16:46.552Z,6.21
2022-12-06T13:19:54.452Z,6.27
2022-12-06T13:22:53.933Z,6.22
2022-12-06T13:26:10.176Z,6.00
2022-12-06T13:29:23.504Z,6.37
2022-12-06T13:32:33.469Z,5.84
2022-12-06T13:35:52.973Z,6.11
2022-12-06T13:38:59.047Z,6.07
2022-12-06T13:42:27.454Z,5.67
2022-12-06T13:45:51.871Z,5.69
2022-12-06T19:20:54.361Z,2.36
2022-12-06T19:24:01.161Z,2.12
2022-12-06T19:27:10.523Z,1.69
2022-12-06T19:30:16.617Z,2.33
2022-12-06T19:33:22.853Z,2.32
2022-12-06T19:36:42.684Z,2.06
2022-12-06T19:39:41.780Z,2.30
2022-12-06T19:43:06.535Z,2.11
2022-12-06T19:46:15.904Z,2.11
2022-12-06T19:49:21.428Z,2.30
2022-12-06T19:52:30.845Z,2.96
2022-12-06T19:55:33.875Z,2.61
2022-12-06T19:58:39.238Z,2.49
2022-12-06T20:01:44.923Z,2.63
2022-12-06T20:04:46.362Z,2.61
2022-12-06T20:07:52.136Z,2.18
2022-12-06T20:10:57.497Z,2.39
2022-12-06T20:14:03.049Z,2.42
2022-12-06T20:17:08.407Z,2.85
2022-12-06T20:20:13.656Z,3.00
2022-12-06T20:23:20.765Z,3.20
2022-12-06T20:26:26.799Z,3.20
2022-12-06T20:29:33.742Z,3.08
2022-12-06T20:32:39.183Z,2.95
2022-12-06T20:35:44.211Z,2.99
2022-12-06T20:38:49.667Z,3.25
2022-12-06T20:41:54.688Z,3.15
2022-12-06T20:45:01.177Z,3.38
2022-12-06T20:48:08.310Z,3.21
2022-12-06T20:51:14.456Z,3.22
2022-12-06T20:54:14.252Z,3.68
2022-12-06T20:57:06.463Z,3.13
2022-12-06T21:00:12.348Z,3.28
2022-12-06T21:03:18.301Z,2.47
2022-12-06T21:06:25.044Z,3.37
2022-12-06T21:09:30.554Z,3.48
2022-12-06T21:12:36.706Z,3.49
2022-12-06T21:15:41.855Z,4.09
2022-12-06T21:18:46.703Z,4.39
2022-12-06T21:21:54.363Z,4.52
2022-12-06T21:25:01.574Z,4.24
2022-12-06T21:28:07.341Z,4.68
2022-12-06T21:31:12.933Z,3.99
2022-12-06T21:34:18.636Z,4.10
2022-12-06T21:37:23.791Z,3.49
2022-12-06T21:40:28.800Z,4.01
2022-12-06T21:43:34.862Z,3.95
2022-12-06T21:46:41.200Z,3.92
2022-12-06T21:49:46.516Z,4.06
2022-12-06T21:52:52.065Z,2.98
2022-12-06T21:55:57.352Z,3.39
2022-12-06T21:59:02.947Z,3.52
2022-12-06T22:02:02.179Z,2.72
2022-12-06T22:05:10.162Z,3.22
2022-12-06T22:08:19.410Z,2.51
2022-12-06T22:11:30.142Z,3.03
2022-12-06T22:14:35.941Z,3.08
2022-12-06T22:17:42.024Z,3.40
2022-12-06T22:20:47.735Z,3.44
2022-12-06T22:23:53.239Z,3.49
2022-12-06T22:26:59.502Z,3.57
2022-12-06T22:30:04.750Z,3.60
2022-12-06T22:33:10.048Z,3.23
2022-12-06T22:36:15.232Z,2.95
2022-12-06T22:39:21.581Z,3.14
2022-12-06T22:42:28.284Z,3.03
2022-12-06T22:45:33.468Z,3.37
2022-12-06T22:48:39.509Z,3.30
2022-12-06T22:51:51.096Z,3.42
2022-12-06T22:54:56.785Z,3.65
2022-12-06T22:58:01.826Z,3.56
2022-12-06T23:01:07.137Z,3.16
2022-12-06T23:04:13.777Z,3.73
2022-12-06T23:07:18.622Z,3.65
2022-12-06T23:10:17.938Z,3.71
2022-12-06T23:13:03.901Z,3.77
2022-12-06T23:16:03.108Z,3.77
2022-12-06T23:19:02.425Z,3.75
2022-12-06T23:22:07.912Z,3.76
2022-12-06T23:25:13.540Z,3.63
2022-12-06T23:28:18.265Z,3.51
2022-12-06T23:31:35.281Z,3.83
2022-12-06T23:34:41.177Z,3.73
2022-12-06T23:37:47.770Z,2.99
2022-12-06T23:40:53.306Z,3.31
2022-12-06T23:43:59.080Z,3.47
2022-12-06T23:47:04.468Z,3.21
2022-12-06T23:50:09.518Z,3.33
2022-12-06T23:53:14.494Z,3.66
2022-12-06T23:56:30.437Z,3.42
2022-12-06T23:59:35.409Z,3.29
